首页
METAR-TAF:

METAR-TAF

机场 :

喬治皇子城機場

乔治王子城, 不列颠哥伦比亚, 加拿大

纬度: 53-53N, 经度: 122-41W, 海拔: 691米

当前天气观测

该预报发布于36分钟前的01:00 UTC
风速7节,风向西转西南,在南转西南西之间变化
温度 18°C
湿度 34%
气压 1011 hPa
能見度: 14.5公里
少量云层高于10000英尺

METAR: CYXS 170100Z AUTO 24007KT 200V260 9SM FEW100 18/02 A2985 RMK SLP123 DENSITY ALT 3200FT

时间: 18:36 (01:36 UTC)

预报

该预报发布于56分钟前的00:40 UTC
预报有效从17日的 01点(UTC)到 17日的 13点(UTC)
风速8节,风向西
能見度: 10公里
少量云层高于6000英尺
散云层高于10000英尺
短暂存在
从 17日的 01点(UTC)到 17日的 08点(UTC)
少量云层高于6000英尺
多云层高于10000英尺
从 17日的 0800点(UTC)
风速6节,风向北转西北
能見度: 10公里
多云层高于6000英尺
短暂存在
从 17日的 08点(UTC)到 17日的 13点(UTC)
能見度: 10公里
小阵雨
几率 30%
从 17日的 10点(UTC)到 17日的 13点(UTC)
风速15节,风向多变,有时为25节阵风
能見度: 3.2公里
多云层高于1000英尺
阴天层高于6000英尺, 积雨云.
雷暴, 雨, 轻雾

TAF: CYXS 170040Z 1701/1713 28008KT P6SM FEW060 SCT100 TEMPO 1701/1708 FEW060 BKN100 FM170800 34006KT P6SM BKN060 TEMPO 1708/1713 P6SM -SHRA PROB30 1710/1713 VRB15G25KT 2SM TSRA BR BKN010 OVC060CB RMK FCST BASED ON AUTO OBS. NXT FCST BY 170700Z

超过4000个机场的气象观测和天气预报(METAR&TAF报告)。

可查询的气象台以黄色和红色小点在地图上表示。

将鼠标移到小点上方,可查看气象台名称。

然后点击查看天气观测和预报。

如需切换地图:点击带黑十字的绿色按钮放大地图;点击带横线的绿色按钮缩小地图;或者点击绿色箭头查看邻近地区的地图。


METAR-TAF: